Time;durP1;ratioP1;P1;durP2;ratioP2;P2;SDS_P1;SDS_P2;PMS_P1;PMS_P2;Temp;Humidity;BMP_temperature;BMP_pressure;BME280_temperature;BME280_humidity;BME280_pressure;Samples;Min_cycle;Max_cycle;Signal;HPM_P1;HPM_P2
2021/07/18 00:00:12;;;;;;;13.68;5.40;;;22.10;99.90;;;;;;4248166;27;20136;-73
2021/07/18 00:02:15;;;;;;;11.73;5.90;;;22.10;99.90;;;;;;4248289;27;20051;-75
2021/07/18 00:04:19;;;;;;;22.33;5.82;;;22.00;99.90;;;;;;4248593;27;20050;-75
2021/07/18 00:06:22;;;;;;;15.82;5.05;;;22.00;99.90;;;;;;4246895;27;20426;-76
2021/07/18 00:08:25;;;;;;;15.18;5.03;;;22.10;99.90;;;;;;4247863;27;20664;-76
2021/07/18 00:10:28;;;;;;;10.45;4.57;;;22.20;99.90;;;;;;4248245;27;20047;-77
2021/07/18 00:12:33;;;;;;;18.58;5.05;;;22.20;99.70;;;;;;4248583;27;20130;-76
2021/07/18 00:14:36;;;;;;;15.35;5.72;;;22.20;99.60;;;;;;4247835;27;20055;-76
2021/07/18 00:16:39;;;;;;;16.27;5.60;;;22.20;99.80;;;;;;4247966;27;20051;-75
2021/07/18 00:18:42;;;;;;;15.88;5.57;;;22.20;99.90;;;;;;4247984;27;20547;-76
2021/07/18 00:20:46;;;;;;;19.70;5.28;;;22.00;99.90;;;;;;4247985;27;20054;-76
2021/07/18 00:22:49;;;;;;;11.88;5.32;;;22.10;99.90;;;;;;4248155;27;20057;-76
2021/07/18 00:24:52;;;;;;;13.45;5.05;;;22.20;99.90;;;;;;4248262;27;20051;-76
2021/07/18 00:26:55;;;;;;;12.43;4.93;;;22.10;99.90;;;;;;4247988;27;20052;-76
2021/07/18 00:29:00;;;;;;;12.18;5.10;;;22.00;99.90;;;;;;4250559;27;20057;-76
2021/07/18 00:31:03;;;;;;;15.60;5.63;;;22.00;99.90;;;;;;4251876;27;20055;-76
2021/07/18 00:33:06;;;;;;;16.17;5.35;;;21.90;99.90;;;;;;4254710;27;20103;-76
2021/07/18 00:35:12;;;;;;;10.32;4.95;;;21.90;99.90;;;;;;4249269;27;20407;-77
2021/07/18 00:37:15;;;;;;;17.67;5.72;;;21.90;99.90;;;;;;4248043;27;20058;-74
2021/07/18 00:39:18;;;;;;;14.35;5.30;;;22.00;99.90;;;;;;4247948;27;20065;-74
2021/07/18 00:41:22;;;;;;;12.15;4.90;;;21.80;99.90;;;;;;4252076;27;20483;-75
2021/07/18 00:43:26;;;;;;;13.87;5.40;;;21.90;99.90;;;;;;4252840;27;20051;-75
2021/07/18 00:45:30;;;;;;;10.93;4.45;;;21.90;99.90;;;;;;4250211;27;20479;-75
2021/07/18 00:47:35;;;;;;;12.73;5.70;;;22.00;99.90;;;;;;4247300;27;20387;-76
2021/07/18 00:49:38;;;;;;;9.27;4.60;;;22.10;99.90;;;;;;4246009;27;20517;-74
2021/07/18 00:51:41;;;;;;;16.65;5.43;;;22.20;99.90;;;;;;4247349;27;20055;-75
2021/07/18 00:53:44;;;;;;;17.73;6.13;;;22.20;99.90;;;;;;4259536;27;20118;-77
2021/07/18 00:55:48;;;;;;;11.40;4.85;;;22.10;99.90;;;;;;4264159;27;20055;-77
2021/07/18 00:57:51;;;;;;;11.60;5.07;;;22.20;99.80;;;;;;4264305;27;20042;-74
2021/07/18 00:59:54;;;;;;;16.33;5.22;;;22.10;99.90;;;;;;4264152;27;20427;-74
2021/07/18 01:01:58;;;;;;;12.98;5.25;;;22.10;99.90;;;;;;4245950;27;20406;-75
2021/07/18 01:04:03;;;;;;;15.55;6.03;;;22.10;99.90;;;;;;4263915;27;20058;-74
2021/07/18 01:06:06;;;;;;;10.65;5.35;;;22.10;99.90;;;;;;4265093;27;20045;-74
2021/07/18 01:08:09;;;;;;;16.70;5.53;;;22.00;99.90;;;;;;4264900;27;20059;-75
2021/07/18 01:10:12;;;;;;;15.77;5.75;;;22.00;99.90;;;;;;4264752;27;20063;-75
2021/07/18 01:12:16;;;;;;;12.82;5.50;;;21.90;99.90;;;;;;4265347;27;20046;-76
2021/07/18 01:14:20;;;;;;;11.20;5.27;;;22.10;99.90;;;;;;4265445;27;20406;-73
2021/07/18 01:16:23;;;;;;;13.95;5.78;;;22.00;99.90;;;;;;4248809;27;20092;-76
2021/07/18 01:18:28;;;;;;;16.17;5.63;;;22.10;99.90;;;;;;4269663;27;20066;-76
2021/07/18 01:20:33;;;;;;;12.45;5.60;;;22.00;99.90;;;;;;4269420;27;20648;-75
2021/07/18 01:22:38;;;;;;;11.93;5.43;;;22.00;99.90;;;;;;4267522;27;20053;-75
2021/07/18 01:24:41;;;;;;;21.08;6.18;;;21.80;99.90;;;;;;4267356;27;20138;-76
2021/07/18 01:26:45;;;;;;;15.30;5.60;;;21.70;99.90;;;;;;4269196;27;20061;-75
2021/07/18 01:28:48;;;;;;;13.13;5.88;;;21.70;99.90;;;;;;4245785;27;20053;-75
2021/07/18 01:30:51;;;;;;;20.52;6.68;;;21.70;99.90;;;;;;4263280;27;20061;-75
2021/07/18 01:32:54;;;;;;;12.70;5.78;;;21.70;99.90;;;;;;4264103;27;20524;-75
2021/07/18 01:34:57;;;;;;;14.07;5.65;;;21.70;99.90;;;;;;4263696;27;20051;-78
2021/07/18 01:37:00;;;;;;;15.23;5.55;;;21.70;99.90;;;;;;4263582;27;20047;-76
2021/07/18 01:39:07;;;;;;;15.75;6.22;;;21.50;99.90;;;;;;4267216;27;20051;-76
2021/07/18 01:41:10;;;;;;;18.60;6.10;;;21.40;99.90;;;;;;4268084;27;20051;-74
2021/07/18 01:43:13;;;;;;;14.88;5.18;;;21.30;99.90;;;;;;4266598;27;20062;-75
2021/07/18 01:45:16;;;;;;;16.58;6.78;;;21.30;99.90;;;;;;4266210;27;20069;-74
2021/07/18 01:47:19;;;;;;;13.48;5.90;;;21.30;99.90;;;;;;4264460;27;20065;-75
2021/07/18 01:49:22;;;;;;;15.82;6.93;;;21.20;99.90;;;;;;4263848;27;20047;-76
2021/07/18 01:51:27;;;;;;;13.52;6.55;;;21.20;99.90;;;;;;4263428;27;20509;-76
2021/07/18 01:53:30;;;;;;;20.05;7.07;;;21.00;99.90;;;;;;4263050;27;20047;-75
2021/07/18 01:55:35;;;;;;;16.42;6.38;;;21.00;99.90;;;;;;4263184;27;20562;-76
2021/07/18 01:57:38;;;;;;;13.57;6.00;;;21.00;99.90;;;;;;4263038;27;20050;-76
2021/07/18 01:59:41;;;;;;;12.02;6.10;;;21.10;99.90;;;;;;4263089;27;20047;-75
2021/07/18 02:01:44;;;;;;;17.33;6.45;;;21.10;99.90;;;;;;4262943;27;20050;-74
2021/07/18 02:03:48;;;;;;;14.25;5.78;;;21.10;99.90;;;;;;4263585;27;20495;-73
2021/07/18 02:05:51;;;;;;;11.55;5.50;;;21.20;99.90;;;;;;4245473;27;20100;-75
2021/07/18 02:07:54;;;;;;;12.02;5.68;;;21.30;99.90;;;;;;4263702;27;20047;-74
2021/07/18 02:09:58;;;;;;;14.57;5.47;;;21.30;99.90;;;;;;4263007;27;20059;-75
2021/07/18 02:12:03;;;;;;;15.18;5.82;;;21.30;99.90;;;;;;4244899;27;20054;-76
2021/07/18 02:14:06;;;;;;;15.73;5.82;;;21.30;99.90;;;;;;4263079;27;20061;-74
2021/07/18 02:16:09;;;;;;;13.68;5.95;;;21.30;99.90;;;;;;4263639;27;20461;-75
2021/07/18 02:18:13;;;;;;;18.02;6.03;;;21.30;99.90;;;;;;4263371;27;20047;-76
2021/07/18 02:20:19;;;;;;;18.00;5.47;;;21.20;99.90;;;;;;4263509;27;20057;-74
2021/07/18 02:22:29;;;;;;;14.43;6.07;;;21.20;99.90;;;;;;4262795;27;20065;-76
2021/07/18 02:24:32;;;;;;;11.57;5.80;;;21.10;99.90;;;;;;4244412;27;20062;-76
2021/07/18 02:26:37;;;;;;;14.60;5.80;;;21.10;99.90;;;;;;4244534;27;20411;-76
2021/07/18 02:28:42;;;;;;;12.23;5.47;;;21.20;99.90;;;;;;4263224;27;20043;-75
2021/07/18 02:30:46;;;;;;;14.35;5.38;;;21.10;99.90;;;;;;4263077;27;20398;-77
2021/07/18 02:32:50;;;;;;;14.40;6.40;;;21.20;99.90;;;;;;4244672;27;20047;-75
2021/07/18 02:34:53;;;;;;;12.30;5.30;;;21.20;99.90;;;;;;4263336;27;20057;-75
2021/07/18 02:36:56;;;;;;;12.02;5.65;;;21.30;99.90;;;;;;4248016;27;20039;-74
2021/07/18 02:38:59;;;;;;;13.07;5.97;;;21.20;99.90;;;;;;4271661;27;20118;-76
2021/07/18 02:41:02;;;;;;;10.57;5.32;;;21.10;99.90;;;;;;4274568;27;20457;-77
2021/07/18 02:43:06;;;;;;;14.07;6.38;;;21.10;99.90;;;;;;4270516;27;20057;-78
2021/07/18 02:45:12;;;;;;;13.43;5.97;;;21.10;99.90;;;;;;4268935;27;20065;-76
2021/07/18 02:47:15;;;;;;;15.43;6.05;;;21.00;99.90;;;;;;4266331;27;20050;-76
2021/07/18 02:49:18;;;;;;;13.48;5.78;;;21.00;99.90;;;;;;4269282;27;20046;-75
2021/07/18 02:51:21;;;;;;;14.73;6.20;;;21.00;99.90;;;;;;4271485;27;20547;-74
2021/07/18 02:53:24;;;;;;;15.63;6.70;;;21.00;99.90;;;;;;4270269;27;20069;-75
2021/07/18 02:55:27;;;;;;;15.30;6.22;;;20.80;99.90;;;;;;4251970;27;20059;-76
2021/07/18 02:57:31;;;;;;;13.00;6.20;;;20.70;99.90;;;;;;4248920;27;20042;-75
2021/07/18 02:59:34;;;;;;;14.45;6.93;;;20.60;99.90;;;;;;4247628;27;20051;-75
2021/07/18 03:01:38;;;;;;;16.88;6.47;;;20.60;99.90;;;;;;4265924;27;20051;-76
2021/07/18 03:03:41;;;;;;;14.52;6.20;;;20.70;99.90;;;;;;4266279;27;20060;-75
2021/07/18 03:05:44;;;;;;;11.27;5.95;;;20.80;99.90;;;;;;4266023;27;20084;-76
2021/07/18 03:07:47;;;;;;;18.33;6.38;;;20.70;99.90;;;;;;4265807;27;20055;-74
2021/07/18 03:09:50;;;;;;;12.50;6.60;;;20.70;99.90;;;;;;4266041;27;20038;-75
2021/07/18 03:11:54;;;;;;;16.80;6.43;;;20.60;99.90;;;;;;4265979;27;20042;-74
2021/07/18 03:13:57;;;;;;;14.35;6.03;;;20.60;99.90;;;;;;4265608;27;20051;-74
2021/07/18 03:16:00;;;;;;;13.15;6.10;;;20.50;99.90;;;;;;4265635;27;20065;-75
2021/07/18 03:18:06;;;;;;;12.88;6.05;;;20.50;99.90;;;;;;4265533;27;20130;-76
2021/07/18 03:20:12;;;;;;;10.23;6.53;;;20.40;99.90;;;;;;4265701;27;20051;-76
2021/07/18 03:22:15;;;;;;;12.73;6.90;;;20.30;99.90;;;;;;4265252;27;20069;-76
2021/07/18 03:24:18;;;;;;;12.43;6.18;;;20.20;99.90;;;;;;4265108;27;20077;-75
2021/07/18 03:26:21;;;;;;;15.65;6.65;;;20.10;99.90;;;;;;4265274;27;20046;-76
2021/07/18 03:28:24;;;;;;;17.10;6.70;;;20.10;99.90;;;;;;4265329;27;20050;-75
2021/07/18 03:30:27;;;;;;;15.40;6.28;;;20.10;99.90;;;;;;4265595;27;20146;-75
2021/07/18 03:32:30;;;;;;;17.60;6.88;;;20.10;99.90;;;;;;4265432;27;20514;-76
2021/07/18 03:34:34;;;;;;;14.43;6.22;;;20.20;99.90;;;;;;4265375;27;20047;-76
2021/07/18 03:36:37;;;;;;;13.73;5.93;;;20.20;99.90;;;;;;4265460;27;20532;-76
2021/07/18 03:38:41;;;;;;;13.10;6.10;;;20.20;99.90;;;;;;4265169;27;20430;-76
2021/07/18 03:40:44;;;;;;;14.63;6.00;;;20.30;99.90;;;;;;4266766;27;20138;-76
2021/07/18 03:42:47;;;;;;;14.80;6.05;;;20.40;99.90;;;;;;4269863;27;20047;-76
2021/07/18 03:44:50;;;;;;;14.25;6.25;;;20.40;99.90;;;;;;4269842;27;20521;-76
2021/07/18 03:46:53;;;;;;;12.27;6.35;;;20.20;99.90;;;;;;4266046;27;20059;-76
2021/07/18 03:48:56;;;;;;;11.95;6.25;;;20.20;99.90;;;;;;4266682;27;20050;-76
2021/07/18 03:51:01;;;;;;;14.52;6.32;;;20.10;99.90;;;;;;4267089;27;20065;-76
2021/07/18 03:53:04;;;;;;;13.38;6.55;;;20.10;99.90;;;;;;4265088;27;20077;-75
2021/07/18 03:55:08;;;;;;;13.52;6.40;;;20.00;99.90;;;;;;4265808;27;20506;-75
2021/07/18 03:57:11;;;;;;;16.98;6.78;;;19.90;99.90;;;;;;4265630;27;20054;-76
2021/07/18 03:59:14;;;;;;;14.75;6.65;;;19.80;99.90;;;;;;4265657;27;20510;-76
2021/07/18 04:01:17;;;;;;;27.63;6.25;;;19.80;99.90;;;;;;4267672;27;20051;-76
2021/07/18 04:03:20;;;;;;;13.70;7.03;;;19.80;99.90;;;;;;4270130;27;20681;-73
2021/07/18 04:05:23;;;;;;;14.90;6.25;;;19.80;99.90;;;;;;4269596;27;20077;-76
2021/07/18 04:07:32;;;;;;;14.63;6.53;;;19.70;99.90;;;;;;4268976;27;20304;-76
2021/07/18 04:09:35;;;;;;;12.30;6.53;;;19.70;99.90;;;;;;4264830;27;20507;-76
2021/07/18 04:11:38;;;;;;;14.60;6.50;;;19.70;99.90;;;;;;4246538;27;20047;-76
2021/07/18 04:13:41;;;;;;;17.42;6.93;;;19.80;99.90;;;;;;4265485;27;20081;-73
2021/07/18 04:15:44;;;;;;;11.57;6.25;;;19.80;99.90;;;;;;4266026;27;20039;-76
2021/07/18 04:17:47;;;;;;;17.13;6.53;;;19.70;99.90;;;;;;4265122;27;20053;-75
2021/07/18 04:19:51;;;;;;;12.30;6.18;;;19.80;99.90;;;;;;4246283;27;20097;-76
2021/07/18 04:21:54;;;;;;;12.18;6.30;;;19.70;99.90;;;;;;4264295;27;20051;-76
2021/07/18 04:23:58;;;;;;;11.02;6.43;;;19.70;99.90;;;;;;4246185;27;20430;-76
2021/07/18 04:26:01;;;;;;;12.40;6.10;;;19.80;99.90;;;;;;4264294;27;20057;-76
2021/07/18 04:28:05;;;;;;;15.98;6.90;;;19.70;99.90;;;;;;4264500;27;20050;-74
2021/07/18 04:30:09;;;;;;;13.13;6.32;;;19.70;99.90;;;;;;4264369;27;20051;-74
2021/07/18 04:32:12;;;;;;;18.42;7.03;;;19.70;99.90;;;;;;4264470;27;20544;-74
2021/07/18 04:34:15;;;;;;;14.48;6.65;;;19.70;99.90;;;;;;4264412;27;20055;-75
2021/07/18 04:36:18;;;;;;;12.93;6.30;;;19.60;99.90;;;;;;4264622;27;20055;-74
2021/07/18 04:38:25;;;;;;;16.92;6.88;;;19.50;99.90;;;;;;4265103;27;20398;-75
2021/07/18 04:40:30;;;;;;;12.68;6.38;;;19.40;99.90;;;;;;4265285;27;20491;-75
2021/07/18 04:42:33;;;;;;;12.73;6.68;;;19.50;99.90;;;;;;4266916;27;20053;-76
2021/07/18 04:44:36;;;;;;;14.43;6.50;;;19.40;99.90;;;;;;4267446;27;20076;-75
2021/07/18 04:46:39;;;;;;;15.75;6.13;;;19.30;99.90;;;;;;4268687;27;20046;-76
2021/07/18 04:48:42;;;;;;;12.52;6.15;;;19.30;99.90;;;;;;4266677;27;20062;-74
2021/07/18 04:50:46;;;;;;;14.25;6.40;;;19.40;99.90;;;;;;4263918;27;20068;-76
2021/07/18 04:52:50;;;;;;;11.55;5.90;;;19.40;99.90;;;;;;4264253;27;20057;-76
2021/07/18 04:54:53;;;;;;;14.40;6.72;;;19.40;99.90;;;;;;4264020;27;20059;-75
2021/07/18 04:56:57;;;;;;;13.32;6.18;;;19.20;99.90;;;;;;4263838;27;20441;-74
2021/07/18 04:59:00;;;;;;;16.25;7.28;;;19.30;99.90;;;;;;4263487;27;20509;-75
2021/07/18 05:01:05;;;;;;;17.58;6.53;;;19.20;99.90;;;;;;4264052;27;20055;-74
2021/07/18 05:03:09;;;;;;;19.60;7.93;;;19.10;99.90;;;;;;4264063;27;20054;-75
2021/07/18 05:05:14;;;;;;;12.98;6.35;;;19.30;99.90;;;;;;4245657;27;20605;-74
2021/07/18 05:07:18;;;;;;;15.23;7.60;;;19.40;99.90;;;;;;4263763;27;20504;-75
2021/07/18 05:09:21;;;;;;;15.50;6.47;;;19.40;99.90;;;;;;4263753;27;20054;-75
2021/07/18 05:11:24;;;;;;;11.95;5.60;;;19.20;99.90;;;;;;4263502;27;20061;-74
2021/07/18 05:13:28;;;;;;;12.10;6.53;;;19.30;99.90;;;;;;4263642;27;20062;-75
2021/07/18 05:15:32;;;;;;;11.05;5.95;;;19.30;99.90;;;;;;4265508;27;20057;-75
2021/07/18 05:17:35;;;;;;;14.63;7.00;;;19.20;99.90;;;;;;4266944;27;20055;-76
2021/07/18 05:19:39;;;;;;;16.48;6.50;;;19.30;99.90;;;;;;4268990;27;20666;-76
2021/07/18 05:21:42;;;;;;;13.35;6.70;;;19.10;99.90;;;;;;4265827;27;20505;-76
2021/07/18 05:23:45;;;;;;;14.65;6.80;;;19.20;99.90;;;;;;4263790;27;20380;-75
2021/07/18 05:25:48;;;;;;;11.27;5.95;;;19.20;99.90;;;;;;4263941;27;20506;-76
2021/07/18 05:27:51;;;;;;;17.45;6.15;;;19.20;99.90;;;;;;4263736;27;20039;-75
2021/07/18 05:29:56;;;;;;;10.13;6.63;;;19.20;99.90;;;;;;4263572;27;20556;-74
2021/07/18 05:31:59;;;;;;;15.07;6.68;;;19.20;99.90;;;;;;4263548;27;20073;-75
2021/07/18 05:34:06;;;;;;;11.90;6.78;;;19.20;99.90;;;;;;4263597;27;20051;-75
2021/07/18 05:36:11;;;;;;;12.93;6.22;;;19.30;99.90;;;;;;4263494;27;20057;-75
2021/07/18 05:38:14;;;;;;;14.10;6.93;;;19.30;99.90;;;;;;4263451;27;20054;-76
2021/07/18 05:40:17;;;;;;;12.07;6.00;;;19.40;99.90;;;;;;4263156;27;20050;-74
2021/07/18 05:42:20;;;;;;;11.13;6.57;;;19.50;99.90;;;;;;4263272;27;20535;-75
2021/07/18 05:44:23;;;;;;;19.73;6.20;;;19.40;99.90;;;;;;4263661;27;20060;-74
2021/07/18 05:46:28;;;;;;;10.10;6.30;;;19.50;99.90;;;;;;4247696;27;20046;-76
2021/07/18 05:48:31;;;;;;;11.73;6.07;;;19.40;99.90;;;;;;4266810;27;20491;-74
2021/07/18 05:50:35;;;;;;;10.82;6.25;;;19.50;99.90;;;;;;4265615;27;20510;-76
2021/07/18 05:52:38;;;;;;;12.05;6.25;;;19.50;99.90;;;;;;4244897;27;20511;-76
2021/07/18 05:54:41;;;;;;;17.50;6.45;;;19.50;99.90;;;;;;4262969;27;20483;-75
2021/07/18 05:56:44;;;;;;;11.88;6.03;;;19.50;99.90;;;;;;4263348;27;20061;-74
2021/07/18 05:58:47;;;;;;;13.10;5.85;;;19.50;99.90;;;;;;4244906;27;20055;-74
2021/07/18 06:00:50;;;;;;;10.77;5.63;;;19.60;99.90;;;;;;4262982;27;20058;-74
2021/07/18 06:02:55;;;;;;;12.63;5.72;;;19.60;99.90;;;;;;4262735;27;20054;-75
2021/07/18 06:04:58;;;;;;;12.07;5.68;;;19.60;99.90;;;;;;4263177;27;20061;-75
2021/07/18 06:07:01;;;;;;;11.63;5.70;;;19.80;99.90;;;;;;4263208;27;20061;-75
2021/07/18 06:09:04;;;;;;;11.25;5.95;;;19.60;99.90;;;;;;4262892;27;20058;-75
2021/07/18 06:11:07;;;;;;;10.10;5.10;;;19.80;99.90;;;;;;4266449;27;20430;-77
2021/07/18 06:13:10;;;;;;;12.02;5.93;;;19.90;99.90;;;;;;4267368;27;20065;-78
2021/07/18 06:15:13;;;;;;;12.77;5.43;;;19.80;99.90;;;;;;4268473;27;20039;-78
2021/07/18 06:17:16;;;;;;;13.90;5.38;;;19.90;99.90;;;;;;4269684;27;20074;-77
2021/07/18 06:19:20;;;;;;;8.40;5.07;;;19.90;99.90;;;;;;4270709;27;20406;-77
2021/07/18 06:21:23;;;;;;;9.70;5.38;;;20.00;99.90;;;;;;4269862;27;20057;-77
2021/07/18 06:23:26;;;;;;;11.32;5.50;;;20.00;99.90;;;;;;4271557;27;20054;-77
2021/07/18 06:25:35;;;;;;;13.02;5.55;;;20.10;99.90;;;;;;4272403;27;20058;-77
2021/07/18 06:27:41;;;;;;;15.50;5.72;;;20.20;99.90;;;;;;4272073;27;20051;-74
2021/07/18 06:29:44;;;;;;;12.55;6.28;;;20.30;99.90;;;;;;4270955;27;20054;-74
2021/07/18 06:31:47;;;;;;;9.23;4.53;;;20.20;99.90;;;;;;4271448;27;20061;-76
2021/07/18 06:33:50;;;;;;;9.20;4.88;;;20.40;99.90;;;;;;4272112;27;20047;-78
2021/07/18 06:35:54;;;;;;;9.88;4.90;;;20.50;99.90;;;;;;4267980;27;20062;-75
2021/07/18 06:37:57;;;;;;;11.13;4.75;;;20.50;99.90;;;;;;4266799;27;20064;-75
2021/07/18 06:40:01;;;;;;;11.05;5.00;;;20.50;99.90;;;;;;4266574;27;20055;-78
2021/07/18 06:42:04;;;;;;;8.75;4.78;;;20.40;99.90;;;;;;4270646;27;20045;-75
2021/07/18 06:44:07;;;;;;;10.77;5.20;;;20.50;99.90;;;;;;4278702;27;20053;-75
2021/07/18 06:46:11;;;;;;;11.15;4.50;;;20.50;99.90;;;;;;4277996;27;20592;-76
2021/07/18 06:48:14;;;;;;;14.02;4.88;;;20.60;99.90;;;;;;4271947;27;20059;-75
2021/07/18 06:50:18;;;;;;;10.85;5.07;;;20.70;99.90;;;;;;4252680;27;20051;-74
2021/07/18 06:52:24;;;;;;;14.32;4.80;;;20.80;99.90;;;;;;4269703;27;20050;-76
2021/07/18 06:54:27;;;;;;;12.20;4.90;;;20.80;99.90;;;;;;4272837;27;20058;-76
2021/07/18 06:56:30;;;;;;;10.65;4.68;;;20.80;99.90;;;;;;4274450;27;20059;-74
2021/07/18 06:58:33;;;;;;;9.75;4.65;;;21.00;99.90;;;;;;4247775;27;20121;-75
2021/07/18 07:00:37;;;;;;;10.38;4.35;;;21.10;99.90;;;;;;4265891;27;20058;-75
2021/07/18 07:02:40;;;;;;;9.65;3.90;;;21.10;99.90;;;;;;4266239;27;20073;-74
2021/07/18 07:04:43;;;;;;;8.43;4.00;;;21.20;99.90;;;;;;4265802;27;20150;-75
2021/07/18 07:06:46;;;;;;;9.95;4.18;;;21.20;99.90;;;;;;4265692;27;20051;-74
2021/07/18 07:08:52;;;;;;;8.93;3.95;;;21.40;99.90;;;;;;4247363;27;20051;-76
2021/07/18 07:10:56;;;;;;;9.88;4.47;;;21.50;99.90;;;;;;4265866;27;20053;-75
2021/07/18 07:12:59;;;;;;;8.75;3.92;;;21.50;99.90;;;;;;4266690;27;20059;-74
2021/07/18 07:15:02;;;;;;;9.27;3.70;;;21.50;99.90;;;;;;4265902;27;20133;-74
2021/07/18 07:17:05;;;;;;;7.45;3.30;;;21.70;99.90;;;;;;4265619;27;20059;-73
2021/07/18 07:19:10;;;;;;;8.63;4.03;;;21.90;99.90;;;;;;4265831;27;20051;-77
2021/07/18 07:21:13;;;;;;;11.13;4.45;;;21.80;99.90;;;;;;4265149;27;20062;-77
2021/07/18 07:23:16;;;;;;;7.88;3.35;;;22.00;99.90;;;;;;4267381;27;20049;-75
2021/07/18 07:25:21;;;;;;;8.02;3.55;;;22.00;99.90;;;;;;4265642;27;20061;-77
2021/07/18 07:27:24;;;;;;;9.77;3.85;;;22.10;99.90;;;;;;4247370;27;20066;-76
2021/07/18 07:29:27;;;;;;;8.95;3.85;;;22.30;99.90;;;;;;4248786;27;20035;-76
2021/07/18 07:31:30;;;;;;;7.93;3.55;;;22.10;99.90;;;;;;4266989;27;20050;-76
2021/07/18 07:33:33;;;;;;;7.88;3.75;;;22.00;99.90;;;;;;4267481;27;20055;-76
2021/07/18 07:35:36;;;;;;;7.18;3.50;;;22.10;99.90;;;;;;4266834;27;20054;-76
2021/07/18 07:37:40;;;;;;;7.95;2.92;;;22.30;99.90;;;;;;4248913;27;20595;-75
2021/07/18 07:39:43;;;;;;;12.55;3.35;;;22.30;99.90;;;;;;4271455;27;20130;-76
2021/07/18 07:41:47;;;;;;;11.57;3.10;;;22.50;99.90;;;;;;4271929;27;20055;-75
2021/07/18 07:43:56;;;;;;;16.25;3.40;;;22.80;99.90;;;;;;4271625;27;20061;-76
2021/07/18 07:45:59;;;;;;;10.38;3.67;;;22.90;99.90;;;;;;4267068;27;20061;-75
2021/07/18 07:48:03;;;;;;;6.07;2.60;;;22.90;99.80;;;;;;4270978;27;20053;-76
2021/07/18 07:50:07;;;;;;;3.25;2.40;;;22.90;99.90;;;;;;4271908;27;20051;-75
2021/07/18 07:52:10;;;;;;;7.13;3.05;;;22.80;99.60;;;;;;4269495;27;20055;-75
2021/07/18 07:54:13;;;;;;;6.28;2.67;;;22.90;99.90;;;;;;4265420;27;20411;-75
2021/07/18 07:56:17;;;;;;;5.40;2.67;;;22.90;99.90;;;;;;4265704;27;20398;-75
2021/07/18 07:58:21;;;;;;;6.88;2.72;;;22.90;99.50;;;;;;4246961;27;20051;-75
2021/07/18 08:00:25;;;;;;;6.30;2.67;;;23.00;99.50;;;;;;4265855;27;20051;-75
2021/07/18 08:02:28;;;;;;;11.93;2.83;;;23.10;99.60;;;;;;4265759;27;20055;-75
2021/07/18 08:04:31;;;;;;;8.45;2.42;;;23.20;99.10;;;;;;4265544;27;20061;-76
2021/07/18 08:06:34;;;;;;;5.20;2.08;;;23.40;99.00;;;;;;4265698;27;20562;-75
2021/07/18 08:08:37;;;;;;;3.65;2.17;;;23.40;98.70;;;;;;4247246;27;20114;-74
2021/07/18 08:10:42;;;;;;;;;;;23.50;98.60;;;;;;4266676;27;20138;-74
2021/07/18 08:12:46;;;;;;;8.25;2.70;;;23.60;97.50;;;;;;4266305;27;19938;-74
2021/07/18 08:14:50;;;;;;;6.20;2.27;;;23.50;97.60;;;;;;4267327;27;20047;-75
2021/07/18 08:16:53;;;;;;;6.15;2.42;;;23.60;97.80;;;;;;4268572;27;20490;-75
2021/07/18 08:18:57;;;;;;;5.72;2.30;;;23.80;97.10;;;;;;4268358;27;20046;-75
2021/07/18 08:21:00;;;;;;;4.00;1.95;;;23.90;97.00;;;;;;4271950;27;20146;-75
2021/07/18 08:23:04;;;;;;;3.60;2.40;;;23.90;96.80;;;;;;4269420;27;20050;-77
2021/07/18 08:25:08;;;;;;;5.47;2.20;;;23.90;97.00;;;;;;4273288;27;20585;-74
2021/07/18 08:27:11;;;;;;;4.38;1.83;;;24.00;96.50;;;;;;4276650;27;20374;-74
2021/07/18 08:29:15;;;;;;;5.03;2.38;;;24.10;96.30;;;;;;4277620;27;20054;-74
2021/07/18 08:31:19;;;;;;;6.28;2.17;;;24.10;96.40;;;;;;4275568;27;20051;-75
2021/07/18 08:33:22;;;;;;;4.80;2.05;;;24.30;96.60;;;;;;4273540;27;20051;-75
2021/07/18 08:35:25;;;;;;;4.53;1.98;;;24.40;96.00;;;;;;4272742;27;20073;-77
2021/07/18 08:37:28;;;;;;;5.90;1.83;;;24.40;95.60;;;;;;4276181;27;20451;-75
2021/07/18 08:39:31;;;;;;;8.00;2.03;;;24.30;95.60;;;;;;4272649;27;20051;-75
2021/07/18 08:41:34;;;;;;;5.53;2.20;;;24.40;95.20;;;;;;4269348;27;20054;-75
2021/07/18 08:43:38;;;;;;;5.47;1.63;;;24.50;95.20;;;;;;4270721;27;20051;-75
2021/07/18 08:45:41;;;;;;;7.00;2.30;;;24.50;94.40;;;;;;4267786;27;20054;-74
2021/07/18 08:47:45;;;;;;;6.68;1.70;;;24.70;94.60;;;;;;4253045;27;20316;-75
2021/07/18 08:49:48;;;;;;;2.70;2.00;;;24.60;94.30;;;;;;4274235;27;20114;-75
2021/07/18 08:51:53;;;;;;;4.68;1.95;;;24.70;94.80;;;;;;4273737;27;20051;-75
2021/07/18 08:53:57;;;;;;;6.05;2.20;;;24.80;93.90;;;;;;4268365;27;20059;-74
2021/07/18 08:56:00;;;;;;;3.60;1.73;;;25.00;94.30;;;;;;4267564;27;20058;-75
2021/07/18 08:58:04;;;;;;;6.13;2.03;;;25.00;93.40;;;;;;4246724;27;20059;-75
2021/07/18 09:00:08;;;;;;;3.75;1.60;;;25.00;93.50;;;;;;4273075;27;20043;-76
2021/07/18 09:02:11;;;;;;;4.10;1.63;;;25.10;93.20;;;;;;4277502;27;20130;-77
2021/07/18 09:04:16;;;;;;;6.68;2.03;;;25.40;93.80;;;;;;4264857;27;20053;-78
2021/07/18 09:06:19;;;;;;;6.38;1.65;;;25.40;92.60;;;;;;4264375;27;20069;-78
2021/07/18 09:08:23;;;;;;;4.72;1.70;;;25.60;93.00;;;;;;4265080;27;20059;-75
2021/07/18 09:10:28;;;;;;;13.38;2.28;;;25.60;92.00;;;;;;4264614;27;20057;-74
2021/07/18 09:12:30;;;;;;;;;;;25.60;92.00;;;;;;4265427;27;20080;-75
2021/07/18 09:14:36;;;;;;;5.63;2.22;;;25.80;91.80;;;;;;4264384;27;19919;-75
2021/07/18 09:16:41;;;;;;;5.57;1.50;;;25.60;90.90;;;;;;4265198;27;20054;-75
2021/07/18 09:18:44;;;;;;;;;;;25.60;90.90;;;;;;4266332;27;20057;-74
2021/07/18 09:20:50;;;;;;;3.85;1.92;;;25.50;90.90;;;;;;4274160;27;19923;-75
2021/07/18 09:23:12;;;;;;;4.55;1.60;;;25.50;91.20;;;;;;4275429;27;20035;-74
2021/07/18 09:25:18;;;;;;;3.10;1.77;;;25.50;91.30;;;;;;4275125;27;20053;-75
2021/07/18 09:27:23;;;;;;;4.75;1.40;;;25.80;91.00;;;;;;4264770;27;20166;-76
2021/07/18 09:29:26;;;;;;;6.10;1.52;;;25.80;90.00;;;;;;4265214;27;20061;-77
2021/07/18 09:31:31;;;;;;;3.05;1.48;;;25.90;89.70;;;;;;4266122;27;20051;-76
2021/07/18 09:33:34;;;;;;;6.38;2.17;;;25.80;90.00;;;;;;4264370;27;20047;-75
2021/07/18 09:35:37;;;;;;;6.60;1.65;;;25.70;89.80;;;;;;4264287;27;20050;-76
2021/07/18 09:37:44;;;;;;;3.53;1.70;;;25.90;89.90;;;;;;4264237;27;20376;-77
2021/07/18 09:39:52;;;;;;;3.40;1.75;;;26.00;90.60;;;;;;4263952;27;20583;-75
2021/07/18 09:41:57;;;;;;;5.30;1.90;;;26.00;90.20;;;;;;4264455;27;20080;-76
2021/07/18 09:44:01;;;;;;;6.07;1.88;;;26.00;89.20;;;;;;4265512;27;20065;-75
2021/07/18 09:46:08;;;;;;;5.95;1.75;;;25.90;89.60;;;;;;4248409;27;20047;-75
2021/07/18 09:48:11;;;;;;;3.17;1.55;;;26.10;89.40;;;;;;4270187;27;20062;-76
2021/07/18 09:50:17;;;;;;;5.55;1.42;;;26.10;87.40;;;;;;4269819;27;20051;-75
2021/07/18 09:52:23;;;;;;;5.22;1.92;;;26.20;87.70;;;;;;4267622;27;20054;-75
2021/07/18 09:54:31;;;;;;;3.97;1.80;;;26.20;87.70;;;;;;4263974;27;20056;-77
2021/07/18 09:56:34;;;;;;;6.28;1.85;;;26.40;88.00;;;;;;4263698;27;20058;-75
2021/07/18 09:58:39;;;;;;;3.58;1.50;;;26.20;86.70;;;;;;4266209;27;20400;-75
2021/07/18 10:00:42;;;;;;;3.65;1.90;;;26.30;86.30;;;;;;4269968;27;20279;-77
2021/07/18 10:02:45;;;;;;;4.38;1.65;;;26.50;85.60;;;;;;4269985;27;20046;-75
2021/07/18 10:04:48;;;;;;;3.40;1.50;;;26.40;86.00;;;;;;4266090;27;20486;-75
2021/07/18 10:07:05;;;;;;;6.22;1.77;;;26.30;83.40;;;;;;4263599;27;20046;-75
2021/07/18 10:09:10;;;;;;;5.53;1.60;;;26.20;84.00;;;;;;4263423;27;20063;-75
2021/07/18 10:11:16;;;;;;;6.45;2.10;;;26.50;84.40;;;;;;4263505;27;20057;-76
2021/07/18 10:13:19;;;;;;;3.42;1.63;;;26.70;83.40;;;;;;4263871;27;20122;-75
2021/07/18 10:15:22;;;;;;;6.40;2.22;;;26.70;83.80;;;;;;4263619;27;20072;-75
2021/07/18 10:17:27;;;;;;;3.30;1.58;;;26.80;83.30;;;;;;4263844;27;20059;-75
2021/07/18 10:19:31;;;;;;;6.22;1.73;;;26.90;82.70;;;;;;4263660;27;20055;-75
2021/07/18 10:21:37;;;;;;;2.75;1.67;;;26.80;81.70;;;;;;4263977;27;20182;-75
2021/07/18 10:23:41;;;;;;;5.50;2.00;;;27.00;82.10;;;;;;4263293;27;20402;-74
2021/07/18 10:25:52;;;;;;;3.67;2.00;;;26.90;81.00;;;;;;4263585;27;20039;-76
2021/07/18 10:27:58;;;;;;;5.68;1.80;;;26.90;82.50;;;;;;4263656;27;20058;-75
2021/07/18 10:30:01;;;;;;;6.07;1.80;;;26.80;82.20;;;;;;4263211;27;20051;-75
2021/07/18 10:32:07;;;;;;;4.50;2.08;;;26.80;81.80;;;;;;4263599;27;20051;-75
2021/07/18 10:34:11;;;;;;;9.70;2.53;;;27.10;81.90;;;;;;4263182;27;20050;-75
2021/07/18 10:36:18;;;;;;;5.68;1.92;;;27.00;79.90;;;;;;4262992;27;20046;-75
2021/07/18 10:38:22;;;;;;;5.13;1.70;;;27.20;79.50;;;;;;4263282;27;20046;-75